Santa Catalina, California
Current Conditions -  °F | °C
As of 8:51 AM on Tuesday 21 Oct 2014 (Local Time) from KAVX Reporting Station
Overcast Overcast  
Wind Chill: 62°   Ceiling: 500
Heat Index: 62°   Visibility: 9mi
Dew Point: 59°   Wind: 5mph
Humidity: 90%   Direction: 80°E
Pressure: 29.96"   Gusts: NA
Location:  33.382°N, 118.433°W
Report Text: KAVX 211551Z AUTO 08004KT 9SM OVC005 17/15 A2996 RMK AO2 CIG 003V006 SLP130 T01670150
Loading
Personal Weather Stations






























Interactive Weather Map
Tropical Storm Tracking
New forecast layout! Learn more

10-Day Weather Forecast

Advertisements
Track Severe Weather on mobile